createdAt,value
2016-12-24T00:00:30.935Z,18.43
2016-12-24T00:01:11.583Z,18.36
2016-12-24T00:01:52.221Z,18.39
2016-12-24T00:02:32.851Z,18.37
2016-12-24T00:03:13.473Z,18.4
2016-12-24T00:03:54.107Z,18.39
2016-12-24T00:04:34.743Z,18.4
2016-12-24T00:05:15.381Z,18.46
2016-12-24T00:05:56.012Z,18.37
2016-12-24T00:06:36.643Z,18.4
2016-12-24T00:07:17.304Z,18.37
2016-12-24T00:07:57.947Z,18.39
2016-12-24T00:08:38.579Z,18.44
2016-12-24T00:09:19.213Z,18.43
2016-12-24T00:09:59.859Z,18.43
2016-12-24T00:10:40.500Z,18.4
2016-12-24T00:11:21.130Z,18.39
2016-12-24T00:12:01.771Z,18.42
2016-12-24T00:12:42.408Z,18.37
2016-12-24T00:13:23.087Z,18.42
2016-12-24T00:14:03.730Z,18.37
2016-12-24T00:14:44.359Z,18.33
2016-12-24T00:15:24.984Z,18.42
2016-12-24T00:16:05.612Z,18.39
2016-12-24T00:16:46.234Z,18.36
2016-12-24T00:17:26.870Z,18.44
2016-12-24T00:18:07.505Z,18.4
2016-12-24T00:18:48.138Z,18.37
2016-12-24T00:19:28.765Z,18.36
2016-12-24T00:20:09.397Z,18.36
2016-12-24T00:20:50.136Z,18.42
2016-12-24T00:21:30.801Z,18.24
2016-12-24T00:22:11.436Z,18.34
2016-12-24T00:22:52.075Z,18.4
2016-12-24T00:23:32.710Z,18.29
2016-12-24T00:24:13.358Z,18.4
2016-12-24T00:24:53.991Z,18.36
2016-12-24T00:25:34.637Z,18.25
2016-12-24T00:26:15.267Z,18.36
2016-12-24T00:26:55.895Z,18.29
2016-12-24T00:27:36.536Z,18.27
2016-12-24T00:28:17.163Z,18.28
2016-12-24T00:28:57.828Z,18.37
2016-12-24T00:29:38.464Z,18.28
2016-12-24T00:30:19.101Z,18.34
2016-12-24T00:30:59.745Z,18.34
2016-12-24T00:31:40.392Z,18.28
2016-12-24T00:32:21.026Z,18.36
2016-12-24T00:33:01.698Z,18.34
2016-12-24T00:33:42.350Z,18.28
2016-12-24T00:34:22.975Z,18.28
2016-12-24T00:35:03.607Z,18.27
2016-12-24T00:35:44.264Z,18.27
2016-12-24T00:36:24.900Z,18.22
2016-12-24T00:37:05.531Z,18.34
2016-12-24T00:37:46.168Z,18.27
2016-12-24T00:38:26.817Z,18.39
2016-12-24T00:39:07.446Z,18.37
2016-12-24T00:39:48.086Z,18.28
2016-12-24T00:40:28.716Z,18.31
2016-12-24T00:41:09.349Z,18.36
2016-12-24T00:41:50.048Z,18.25
2016-12-24T00:42:30.666Z,18.28
2016-12-24T00:43:11.491Z,18.25
2016-12-24T00:43:52.125Z,18.27
2016-12-24T00:44:32.764Z,18.33
2016-12-24T00:45:13.402Z,18.34
2016-12-24T00:45:54.051Z,18.29
2016-12-24T00:46:34.766Z,18.31
2016-12-24T00:47:15.397Z,18.29
2016-12-24T00:47:56.028Z,18.29
2016-12-24T00:48:36.656Z,18.29
2016-12-24T00:49:17.290Z,18.24
2016-12-24T00:49:57.931Z,18.31
2016-12-24T00:50:38.564Z,18.25
2016-12-24T00:51:19.193Z,18.28
2016-12-24T00:52:00.788Z,18.29
2016-12-24T00:52:41.447Z,18.25
2016-12-24T00:53:22.093Z,18.27
2016-12-24T00:54:02.771Z,18.31
2016-12-24T00:54:43.409Z,18.28
2016-12-24T00:55:24.032Z,18.28
2016-12-24T00:56:04.773Z,18.29
2016-12-24T00:56:45.467Z,18.28
2016-12-24T00:57:26.094Z,18.29
2016-12-24T00:58:06.728Z,18.28
2016-12-24T00:58:47.374Z,18.27
2016-12-24T00:59:28.010Z,18.27
2016-12-24T01:00:08.668Z,18.27
2016-12-24T01:00:49.324Z,18.27
2016-12-24T01:01:29.951Z,18.31
2016-12-24T01:02:10.630Z,18.27
2016-12-24T01:02:51.256Z,18.34
2016-12-24T01:03:31.887Z,18.27
2016-12-24T01:04:12.563Z,18.28
2016-12-24T01:04:53.184Z,18.33
2016-12-24T01:05:33.820Z,18.25
2016-12-24T01:06:14.508Z,18.34
2016-12-24T01:06:55.144Z,18.27
2016-12-24T01:07:35.802Z,18.27
2016-12-24T01:08:16.523Z,18.28
2016-12-24T01:08:57.247Z,18.28
2016-12-24T01:09:37.885Z,18.29
2016-12-24T01:10:18.512Z,18.31
2016-12-24T01:10:59.142Z,18.21
2016-12-24T01:11:39.774Z,18.22
2016-12-24T01:12:20.417Z,18.31
2016-12-24T01:13:01.033Z,18.27
2016-12-24T01:13:41.653Z,18.27
2016-12-24T01:14:22.294Z,18.33
2016-12-24T01:15:02.932Z,18.28
2016-12-24T01:15:43.586Z,18.31
2016-12-24T01:16:24.211Z,18.29
2016-12-24T01:17:04.838Z,18.28
2016-12-24T01:17:45.466Z,18.33
2016-12-24T01:18:26.103Z,18.33
2016-12-24T01:19:06.743Z,18.24
2016-12-24T01:19:47.378Z,18.18
2016-12-24T01:20:28.019Z,18.24
2016-12-24T01:21:08.676Z,18.25
2016-12-24T01:21:49.344Z,18.22
2016-12-24T01:22:29.970Z,18.22
2016-12-24T01:23:10.609Z,18.24
2016-12-24T01:23:51.241Z,18.24
2016-12-24T01:24:31.870Z,18.27
2016-12-24T01:25:12.578Z,18.25
2016-12-24T01:25:53.218Z,18.31
2016-12-24T01:26:33.844Z,18.25
2016-12-24T01:27:14.473Z,18.25
2016-12-24T01:27:55.100Z,18.22
2016-12-24T01:28:35.727Z,18.25
2016-12-24T01:29:16.355Z,18.22
2016-12-24T01:29:57.136Z,18.17
2016-12-24T01:30:37.762Z,18.21
2016-12-24T01:31:18.400Z,18.24
2016-12-24T01:31:59.030Z,18.27
2016-12-24T01:32:39.661Z,18.19
2016-12-24T01:33:20.363Z,18.21
2016-12-24T01:34:01.078Z,18.27
2016-12-24T01:34:41.715Z,18.29
2016-12-24T01:35:22.347Z,18.27
2016-12-24T01:36:02.972Z,18.31
2016-12-24T01:36:43.631Z,18.27
2016-12-24T01:37:24.221Z,18.27
2016-12-24T01:38:04.844Z,18.28
2016-12-24T01:38:45.474Z,18.22
2016-12-24T01:39:26.098Z,18.21
2016-12-24T01:40:06.725Z,18.21
2016-12-24T01:40:47.351Z,18.25
2016-12-24T01:41:27.993Z,18.21
2016-12-24T01:42:08.645Z,18.21
2016-12-24T01:42:49.284Z,18.25
2016-12-24T01:43:29.909Z,18.25
2016-12-24T01:44:10.568Z,18.21
2016-12-24T01:44:51.211Z,18.21
2016-12-24T01:45:31.843Z,18.21
2016-12-24T01:46:12.465Z,18.19
2016-12-24T01:46:53.116Z,18.24
2016-12-24T01:47:33.756Z,18.18
2016-12-24T01:48:14.411Z,18.24
2016-12-24T01:48:55.040Z,18.24
2016-12-24T01:49:35.673Z,18.19
2016-12-24T01:50:16.303Z,18.21
2016-12-24T01:50:56.933Z,18.21
2016-12-24T01:51:37.618Z,18.18
2016-12-24T01:52:18.243Z,18.21
2016-12-24T01:52:58.875Z,18.1
2016-12-24T01:53:39.523Z,18.13
2016-12-24T01:54:20.194Z,18.18
2016-12-24T01:55:00.838Z,18.17
2016-12-24T01:55:41.495Z,18.13
2016-12-24T01:56:23.112Z,18.1
2016-12-24T01:57:03.740Z,18.21
2016-12-24T01:57:44.425Z,18.07
2016-12-24T01:58:25.116Z,18.18
2016-12-24T01:59:05.788Z,18.17
2016-12-24T01:59:46.434Z,18.06
2016-12-24T02:00:27.074Z,18.13
2016-12-24T02:01:07.789Z,18.13
2016-12-24T02:01:48.421Z,18.13
2016-12-24T02:02:29.043Z,18.15
2016-12-24T02:03:09.693Z,18.17
2016-12-24T02:03:50.320Z,18.18
2016-12-24T02:04:30.957Z,18.12
2016-12-24T02:05:11.621Z,18.18
2016-12-24T02:05:52.250Z,18.18
2016-12-24T02:06:32.874Z,18.17
2016-12-24T02:07:13.624Z,18.07
2016-12-24T02:07:54.256Z,18.06
2016-12-24T02:08:34.955Z,18.18
2016-12-24T02:09:15.637Z,18.18
2016-12-24T02:09:56.312Z,18.06
2016-12-24T02:10:36.945Z,18.17
2016-12-24T02:11:17.571Z,18.17
2016-12-24T02:11:58.273Z,18.13
2016-12-24T02:12:38.917Z,18.17
2016-12-24T02:13:19.544Z,18.13
2016-12-24T02:14:00.181Z,18.13
2016-12-24T02:14:40.815Z,18.13
2016-12-24T02:15:21.477Z,18.1
2016-12-24T02:16:02.103Z,18.15
2016-12-24T02:16:42.732Z,18.07
2016-12-24T02:17:23.360Z,18.09
2016-12-24T02:18:03.997Z,18.12
2016-12-24T02:18:44.622Z,18.1
2016-12-24T02:19:25.252Z,18.09
2016-12-24T02:20:05.911Z,18.09
2016-12-24T02:20:46.568Z,18.1
2016-12-24T02:21:27.200Z,18.09
2016-12-24T02:22:07.866Z,18.13
2016-12-24T02:22:48.519Z,18.09
2016-12-24T02:23:29.169Z,18.15
2016-12-24T02:24:09.817Z,18.07
2016-12-24T02:24:50.445Z,18.1
2016-12-24T02:25:31.156Z,18.07
2016-12-24T02:26:11.783Z,18.15
2016-12-24T02:26:52.438Z,18.17
2016-12-24T02:27:33.076Z,18.12
2016-12-24T02:28:13.703Z,18.1
2016-12-24T02:28:54.331Z,18.22
2016-12-24T02:29:34.986Z,18.15
2016-12-24T02:30:15.618Z,18.06
2016-12-24T02:30:56.250Z,18.17
2016-12-24T02:31:36.878Z,18.07
2016-12-24T02:32:17.558Z,18.18
2016-12-24T02:32:58.180Z,18.15
2016-12-24T02:33:38.827Z,18.12
2016-12-24T02:34:19.572Z,18.18
2016-12-24T02:35:00.217Z,18.06
2016-12-24T02:35:40.907Z,18.12
2016-12-24T02:36:21.539Z,18.13
2016-12-24T02:37:02.255Z,18.1
2016-12-24T02:37:42.828Z,18.15
2016-12-24T02:38:23.466Z,18.07
2016-12-24T02:39:04.153Z,18.19
2016-12-24T02:39:44.740Z,18.12
2016-12-24T02:40:25.400Z,18.04
2016-12-24T02:41:06.081Z,18.03
2016-12-24T02:41:46.646Z,18.19
2016-12-24T02:42:27.319Z,18.15
2016-12-24T02:43:07.962Z,18.19
2016-12-24T02:43:48.594Z,18.04
2016-12-24T02:44:29.221Z,18.15
2016-12-24T02:45:09.857Z,18.12
2016-12-24T02:45:50.467Z,18.1
2016-12-24T02:46:31.093Z,18.04
2016-12-24T02:47:11.731Z,18.13
2016-12-24T02:47:52.412Z,18.17
2016-12-24T02:48:33.043Z,18.12
2016-12-24T02:49:13.668Z,18.1
2016-12-24T02:49:54.351Z,18.1
2016-12-24T02:50:35.040Z,18.09
2016-12-24T02:51:15.713Z,18.1
2016-12-24T02:51:56.350Z,18.1
2016-12-24T02:52:36.991Z,18.09
2016-12-24T02:53:17.644Z,18.13
2016-12-24T02:53:58.268Z,18.1
2016-12-24T02:54:38.894Z,18.07
2016-12-24T02:55:19.618Z,18.09
2016-12-24T02:56:00.265Z,18.07
2016-12-24T02:56:40.913Z,18.1
2016-12-24T02:57:21.546Z,18.19
2016-12-24T02:58:02.176Z,18.1
2016-12-24T02:58:42.822Z,18.1
2016-12-24T02:59:23.464Z,18.12
2016-12-24T03:00:04.101Z,18.09
2016-12-24T03:00:44.728Z,18.09
2016-12-24T03:01:25.384Z,18.12
2016-12-24T03:02:06.010Z,18.13
2016-12-24T03:02:46.638Z,18.17
2016-12-24T03:03:27.311Z,18.07
2016-12-24T03:04:07.935Z,18.06
2016-12-24T03:04:48.557Z,18.06
2016-12-24T03:05:29.313Z,18.07
2016-12-24T03:06:09.942Z,18.12
2016-12-24T03:06:50.567Z,18.12
2016-12-24T03:07:31.199Z,18.09
2016-12-24T03:08:11.825Z,18.09
2016-12-24T03:08:52.543Z,18.13
2016-12-24T03:09:33.175Z,18.1
2016-12-24T03:10:13.808Z,18.09
2016-12-24T03:10:54.433Z,18.07
2016-12-24T03:11:35.070Z,18.1
2016-12-24T03:12:15.703Z,18.13
2016-12-24T03:12:56.329Z,18.12
2016-12-24T03:13:37.045Z,18.13
2016-12-24T03:14:17.681Z,18.06
2016-12-24T03:14:58.317Z,18.06
2016-12-24T03:15:39.001Z,18.04
2016-12-24T03:16:19.699Z,18.12
2016-12-24T03:17:00.343Z,18.04
2016-12-24T03:17:40.998Z,18.06
2016-12-24T03:18:21.628Z,18.07
2016-12-24T03:19:02.255Z,18.07
2016-12-24T03:19:42.887Z,18.07
2016-12-24T03:20:23.512Z,18.06
2016-12-24T03:21:04.134Z,18.02
2016-12-24T03:21:44.783Z,18.06
2016-12-24T03:22:25.461Z,18.04
2016-12-24T03:23:06.108Z,18.02
2016-12-24T03:23:46.806Z,18.06
2016-12-24T03:24:27.460Z,18.06
2016-12-24T03:25:08.088Z,18.07
2016-12-24T03:25:48.776Z,18.04
2016-12-24T03:26:29.404Z,18.07
2016-12-24T03:27:10.053Z,18.04
2016-12-24T03:27:50.666Z,18.04
2016-12-24T03:28:31.411Z,18.07
2016-12-24T03:29:12.035Z,18.06
2016-12-24T03:29:52.768Z,18.03
2016-12-24T03:30:33.399Z,18.07
2016-12-24T03:31:14.042Z,18.02
2016-12-24T03:31:54.658Z,18.1
2016-12-24T03:32:35.295Z,18.04
2016-12-24T03:33:15.935Z,18.09
2016-12-24T03:33:56.564Z,18.04
2016-12-24T03:34:37.260Z,18.07
2016-12-24T03:35:17.894Z,18.12
2016-12-24T03:35:58.530Z,18.1
2016-12-24T03:36:39.222Z,18.07
2016-12-24T03:37:19.939Z,18.09
2016-12-24T03:38:00.579Z,18.04
2016-12-24T03:38:41.260Z,18.04
2016-12-24T03:39:21.894Z,18.06
2016-12-24T03:40:02.528Z,17.99
2016-12-24T03:40:43.161Z,18.02
2016-12-24T03:41:24.537Z,18.03
2016-12-24T03:42:05.164Z,18.04
2016-12-24T03:42:45.796Z,18.09
2016-12-24T03:43:26.431Z,18.03
2016-12-24T03:44:07.057Z,18.03
2016-12-24T03:44:47.692Z,18.02
2016-12-24T03:45:28.319Z,18.03
2016-12-24T03:46:08.938Z,18.04
2016-12-24T03:46:49.663Z,18.1
2016-12-24T03:47:30.287Z,18.12
2016-12-24T03:48:10.924Z,18.1
2016-12-24T03:48:51.581Z,18.06
2016-12-24T03:49:32.210Z,18.02
2016-12-24T03:50:12.863Z,18.02
2016-12-24T03:50:53.595Z,18.1
2016-12-24T03:51:34.280Z,18.04
2016-12-24T03:52:14.924Z,17.94
2016-12-24T03:52:55.558Z,18.02
2016-12-24T03:53:36.235Z,17.94
2016-12-24T03:54:16.866Z,18
2016-12-24T03:54:58.324Z,17.99
2016-12-24T03:55:38.953Z,17.95
2016-12-24T03:56:19.578Z,17.94
2016-12-24T03:57:00.204Z,18.03
2016-12-24T03:57:40.847Z,17.92
2016-12-24T03:58:21.557Z,18.03
2016-12-24T03:59:02.174Z,18.02
2016-12-24T03:59:42.801Z,18
2016-12-24T04:00:23.435Z,17.99
2016-12-24T04:01:04.066Z,18.02
2016-12-24T04:01:44.700Z,18.07
2016-12-24T04:02:25.331Z,18.02
2016-12-24T04:03:05.959Z,17.97
2016-12-24T04:03:46.588Z,17.97
2016-12-24T04:04:27.210Z,17.97
2016-12-24T04:05:07.915Z,18.04
2016-12-24T04:05:48.539Z,18.02
2016-12-24T04:06:29.195Z,18
2016-12-24T04:07:09.846Z,17.97
2016-12-24T04:07:50.467Z,17.99
2016-12-24T04:08:31.206Z,18.03
2016-12-24T04:09:11.871Z,18.07
2016-12-24T04:09:52.605Z,18.02
2016-12-24T04:10:33.248Z,18.12
2016-12-24T04:11:13.930Z,18.03
2016-12-24T04:11:54.524Z,18.04
2016-12-24T04:12:35.148Z,18
2016-12-24T04:13:15.830Z,18.02
2016-12-24T04:13:56.457Z,18.06
2016-12-24T04:14:37.086Z,18.07
2016-12-24T04:15:17.754Z,18.07
2016-12-24T04:15:58.489Z,18.03
2016-12-24T04:16:39.124Z,18.03
2016-12-24T04:17:19.777Z,18.02
2016-12-24T04:18:00.498Z,17.95
2016-12-24T04:18:41.167Z,17.89
2016-12-24T04:19:21.812Z,18
2016-12-24T04:20:02.529Z,17.94
2016-12-24T04:20:43.162Z,17.91
2016-12-24T04:21:23.793Z,18.03
2016-12-24T04:22:04.419Z,17.99
2016-12-24T04:22:45.127Z,17.94
2016-12-24T04:23:25.758Z,17.97
2016-12-24T04:24:06.413Z,17.95
2016-12-24T04:24:47.039Z,18.02
2016-12-24T04:25:27.668Z,17.89
2016-12-24T04:26:08.303Z,17.92
2016-12-24T04:26:48.940Z,17.89
2016-12-24T04:27:29.572Z,17.92
2016-12-24T04:28:10.218Z,17.89
2016-12-24T04:28:50.870Z,17.94
2016-12-24T04:29:31.525Z,17.94
2016-12-24T04:30:12.155Z,17.95
2016-12-24T04:30:52.794Z,17.95
2016-12-24T04:31:33.446Z,18.02
2016-12-24T04:32:14.082Z,17.92
2016-12-24T04:32:54.763Z,17.91
2016-12-24T04:33:35.386Z,17.97
2016-12-24T04:34:16.018Z,17.89
2016-12-24T04:34:56.704Z,17.89
2016-12-24T04:35:37.334Z,17.97
2016-12-24T04:36:18.060Z,17.94
2016-12-24T04:36:58.752Z,17.89
2016-12-24T04:37:39.445Z,17.89
2016-12-24T04:38:20.085Z,17.95
2016-12-24T04:39:00.714Z,17.99
2016-12-24T04:39:41.943Z,17.89
2016-12-24T04:40:22.661Z,17.91
2016-12-24T04:41:03.324Z,17.91
2016-12-24T04:41:43.947Z,17.99
2016-12-24T04:42:24.637Z,17.92
2016-12-24T04:43:05.263Z,17.89
2016-12-24T04:43:45.889Z,17.94
2016-12-24T04:44:26.595Z,17.91
2016-12-24T04:45:07.221Z,17.89
2016-12-24T04:45:47.852Z,17.97
2016-12-24T04:46:28.518Z,17.92
2016-12-24T04:47:09.140Z,17.95
2016-12-24T04:47:49.764Z,17.88
2016-12-24T04:48:30.460Z,17.89
2016-12-24T04:49:12.063Z,17.88
2016-12-24T04:49:52.692Z,17.87
2016-12-24T04:50:33.322Z,17.85
2016-12-24T04:51:13.939Z,17.89
2016-12-24T04:51:54.567Z,17.89
2016-12-24T04:52:35.192Z,17.89
2016-12-24T04:53:15.829Z,17.89
2016-12-24T04:53:56.468Z,17.91
2016-12-24T04:54:37.190Z,17.95
2016-12-24T04:55:17.851Z,17.88
2016-12-24T04:55:58.478Z,17.89
2016-12-24T04:56:39.129Z,17.91
2016-12-24T04:57:19.733Z,17.91
2016-12-24T04:58:00.354Z,17.94
2016-12-24T04:58:40.973Z,17.92
2016-12-24T04:59:21.604Z,17.88
2016-12-24T05:00:02.235Z,17.94
2016-12-24T05:00:42.919Z,17.95
2016-12-24T05:01:23.589Z,17.99
2016-12-24T05:02:04.214Z,17.88
2016-12-24T05:02:44.842Z,17.89
2016-12-24T05:03:25.567Z,17.89
2016-12-24T05:04:06.191Z,17.88
2016-12-24T05:04:46.887Z,17.88
2016-12-24T05:05:27.608Z,17.88
2016-12-24T05:06:08.304Z,17.91
2016-12-24T05:06:48.952Z,17.91
2016-12-24T05:07:29.613Z,17.95
2016-12-24T05:08:10.310Z,17.92
2016-12-24T05:08:50.930Z,17.92
2016-12-24T05:09:31.579Z,17.97
2016-12-24T05:10:12.303Z,17.89
2016-12-24T05:10:52.929Z,17.92
2016-12-24T05:11:33.563Z,17.87
2016-12-24T05:12:14.199Z,17.87
2016-12-24T05:12:54.846Z,17.95
2016-12-24T05:13:35.492Z,17.89
2016-12-24T05:14:16.264Z,17.88
2016-12-24T05:14:56.907Z,17.92
2016-12-24T05:15:37.535Z,17.87
2016-12-24T05:16:18.172Z,17.97
2016-12-24T05:16:58.791Z,17.92
2016-12-24T05:17:39.414Z,17.87
2016-12-24T05:18:20.038Z,17.92
2016-12-24T05:19:00.672Z,17.87
2016-12-24T05:19:41.371Z,17.94
2016-12-24T05:20:22.066Z,17.95
2016-12-24T05:21:02.743Z,17.94
2016-12-24T05:21:43.378Z,17.92
2016-12-24T05:22:24.094Z,17.88
2016-12-24T05:23:04.724Z,17.92
2016-12-24T05:23:45.350Z,17.89
2016-12-24T05:24:25.980Z,17.91
2016-12-24T05:25:06.619Z,17.91
2016-12-24T05:25:47.256Z,17.95
2016-12-24T05:26:27.955Z,17.88
2016-12-24T05:27:08.586Z,17.97
2016-12-24T05:27:49.215Z,17.89
2016-12-24T05:28:29.865Z,17.91
2016-12-24T05:29:10.516Z,17.88
2016-12-24T05:29:51.136Z,17.92
2016-12-24T05:30:31.776Z,17.88
2016-12-24T05:31:12.448Z,17.92
2016-12-24T05:31:53.081Z,17.87
2016-12-24T05:32:33.842Z,17.92
2016-12-24T05:33:14.477Z,17.87
2016-12-24T05:33:55.156Z,17.92
2016-12-24T05:34:35.742Z,17.92
2016-12-24T05:35:16.447Z,17.87
2016-12-24T05:35:57.098Z,17.89
2016-12-24T05:36:37.756Z,17.87
2016-12-24T05:37:18.382Z,17.92
2016-12-24T05:37:59.029Z,17.87
2016-12-24T05:38:39.662Z,17.88
2016-12-24T05:39:20.313Z,17.88
2016-12-24T05:40:00.955Z,17.92
2016-12-24T05:40:41.590Z,17.79
2016-12-24T05:41:22.209Z,17.87
2016-12-24T05:42:02.837Z,17.85
2016-12-24T05:42:43.466Z,17.81
2016-12-24T05:43:24.097Z,17.82
2016-12-24T05:44:04.726Z,17.82
2016-12-24T05:44:45.349Z,17.81
2016-12-24T05:45:25.975Z,17.88
2016-12-24T05:46:06.606Z,17.87
2016-12-24T05:46:47.246Z,17.85
2016-12-24T05:47:27.950Z,17.89
2016-12-24T05:48:08.598Z,17.82
2016-12-24T05:48:49.243Z,17.88
2016-12-24T05:49:29.894Z,17.81
2016-12-24T05:50:10.576Z,17.84
2016-12-24T05:50:51.211Z,17.82
2016-12-24T05:51:31.850Z,17.82
2016-12-24T05:52:12.501Z,17.81
2016-12-24T05:52:53.125Z,17.85
2016-12-24T05:53:33.752Z,17.79
2016-12-24T05:54:14.424Z,17.81
2016-12-24T05:54:55.052Z,17.84
2016-12-24T05:55:35.681Z,17.87
2016-12-24T05:56:16.357Z,17.78
2016-12-24T05:56:56.987Z,17.81
2016-12-24T05:57:37.625Z,17.78
2016-12-24T05:58:18.281Z,17.85
2016-12-24T05:58:58.909Z,17.84
2016-12-24T05:59:39.532Z,17.79
2016-12-24T06:00:20.163Z,17.79
2016-12-24T06:01:00.791Z,17.78
2016-12-24T06:01:41.438Z,17.78
2016-12-24T06:02:22.068Z,17.85
2016-12-24T06:03:02.692Z,17.78
2016-12-24T06:03:43.437Z,17.82
2016-12-24T06:04:24.077Z,17.79
2016-12-24T06:05:04.707Z,17.85
2016-12-24T06:05:45.333Z,17.81
2016-12-24T06:06:25.971Z,17.88
2016-12-24T06:07:06.603Z,17.84
2016-12-24T06:07:47.237Z,17.82
2016-12-24T06:08:27.869Z,17.81
2016-12-24T06:09:08.495Z,17.84
2016-12-24T06:09:49.218Z,17.81
2016-12-24T06:10:29.841Z,17.79
2016-12-24T06:11:10.484Z,17.81
2016-12-24T06:11:51.107Z,17.79
2016-12-24T06:12:31.747Z,17.87
2016-12-24T06:13:12.388Z,17.81
2016-12-24T06:13:53.018Z,17.81
2016-12-24T06:14:33.643Z,17.88
2016-12-24T06:15:14.269Z,17.79
2016-12-24T06:15:54.894Z,17.79
2016-12-24T06:16:35.528Z,17.74
2016-12-24T06:17:16.218Z,17.84
2016-12-24T06:17:56.843Z,17.78
2016-12-24T06:18:37.474Z,17.79
2016-12-24T06:19:18.109Z,17.76
2016-12-24T06:19:58.730Z,17.7
2016-12-24T06:20:39.424Z,17.82
2016-12-24T06:21:20.057Z,17.73
2016-12-24T06:22:00.679Z,17.78
2016-12-24T06:22:41.352Z,17.84
2016-12-24T06:23:21.992Z,17.79
2016-12-24T06:24:02.635Z,17.73
2016-12-24T06:24:43.315Z,17.84
2016-12-24T06:25:23.939Z,17.78
2016-12-24T06:26:04.564Z,17.84
2016-12-24T06:26:45.232Z,17.84
2016-12-24T06:27:25.860Z,17.87
2016-12-24T06:28:06.606Z,17.78
2016-12-24T06:28:47.262Z,17.87
2016-12-24T06:29:27.928Z,17.78
2016-12-24T06:30:08.611Z,17.79
2016-12-24T06:30:49.239Z,17.78
2016-12-24T06:31:29.875Z,17.73
2016-12-24T06:32:10.498Z,17.73
2016-12-24T06:32:51.177Z,17.73
2016-12-24T06:33:31.804Z,17.74
2016-12-24T06:34:12.432Z,17.84
2016-12-24T06:34:53.105Z,17.71
2016-12-24T06:35:33.734Z,17.74
2016-12-24T06:36:14.358Z,17.71
2016-12-24T06:36:55.037Z,17.69
2016-12-24T06:37:35.668Z,17.7
2016-12-24T06:38:16.293Z,17.78
2016-12-24T06:38:56.995Z,17.71
2016-12-24T06:39:37.722Z,17.71
2016-12-24T06:40:18.361Z,17.73
2016-12-24T06:40:59.004Z,17.69
2016-12-24T06:41:39.647Z,17.76
2016-12-24T06:42:20.274Z,17.74
2016-12-24T06:43:01.022Z,17.7
2016-12-24T06:43:41.698Z,17.74
2016-12-24T06:44:22.325Z,17.84
2016-12-24T06:45:02.955Z,17.76
2016-12-24T06:45:43.644Z,17.78
2016-12-24T06:46:24.314Z,17.71
2016-12-24T06:47:04.948Z,17.74
2016-12-24T06:47:45.652Z,17.74
2016-12-24T06:48:26.279Z,17.79
2016-12-24T06:49:06.908Z,17.73
2016-12-24T06:49:47.542Z,17.74
2016-12-24T06:50:28.177Z,17.74
2016-12-24T06:51:08.804Z,17.74
2016-12-24T06:51:49.526Z,17.81
2016-12-24T06:52:30.155Z,17.81
2016-12-24T06:53:10.786Z,17.7
2016-12-24T06:53:51.431Z,17.79
2016-12-24T06:54:32.161Z,17.7
2016-12-24T06:55:12.796Z,17.79
2016-12-24T06:55:53.486Z,17.74
2016-12-24T06:56:34.128Z,17.79
2016-12-24T06:57:14.766Z,17.76
2016-12-24T06:57:55.385Z,17.73
2016-12-24T06:58:36.015Z,17.73
2016-12-24T06:59:16.653Z,17.81
2016-12-24T06:59:57.285Z,17.73
2016-12-24T07:00:37.913Z,17.84
2016-12-24T07:01:18.538Z,17.73
2016-12-24T07:01:59.164Z,17.74
2016-12-24T07:02:39.784Z,17.74
2016-12-24T07:03:20.405Z,17.74
2016-12-24T07:04:01.138Z,17.76
2016-12-24T07:04:41.784Z,17.76
2016-12-24T07:05:22.487Z,17.73
2016-12-24T07:06:03.051Z,17.78
2016-12-24T07:06:43.712Z,17.69
2016-12-24T07:07:24.337Z,17.73
2016-12-24T07:08:04.963Z,17.71
2016-12-24T07:08:45.697Z,17.7
2016-12-24T07:09:26.331Z,17.67
2016-12-24T07:10:06.973Z,17.79
2016-12-24T07:10:47.670Z,17.82
2016-12-24T07:11:28.295Z,17.76
2016-12-24T07:12:08.927Z,17.69
2016-12-24T07:12:49.587Z,17.79
2016-12-24T07:13:30.219Z,17.71
2016-12-24T07:14:10.837Z,17.71
2016-12-24T07:14:51.465Z,17.73
2016-12-24T07:15:32.098Z,17.79
2016-12-24T07:16:12.733Z,17.7
2016-12-24T07:16:53.403Z,17.71
2016-12-24T07:17:34.028Z,17.74
2016-12-24T07:18:14.659Z,17.76
2016-12-24T07:18:55.285Z,17.78
2016-12-24T07:19:35.920Z,17.78
2016-12-24T07:20:16.562Z,17.7
2016-12-24T07:20:57.211Z,17.71
2016-12-24T07:21:37.875Z,17.82
2016-12-24T07:22:18.521Z,17.71
2016-12-24T07:22:59.153Z,17.71
2016-12-24T07:23:39.846Z,17.78
2016-12-24T07:24:20.471Z,17.74
2016-12-24T07:25:01.095Z,17.76
2016-12-24T07:25:41.732Z,17.71
2016-12-24T07:26:22.366Z,17.7
2016-12-24T07:27:02.997Z,17.73
2016-12-24T07:27:43.622Z,17.76
2016-12-24T07:28:24.249Z,17.71
2016-12-24T07:29:04.877Z,17.73
2016-12-24T07:29:45.504Z,17.74
2016-12-24T07:30:26.144Z,17.67
2016-12-24T07:31:06.771Z,17.62
2016-12-24T07:31:47.411Z,17.62
2016-12-24T07:32:28.074Z,17.71
2016-12-24T07:33:08.699Z,17.62
2016-12-24T07:33:49.433Z,17.62
2016-12-24T07:34:30.093Z,17.66
2016-12-24T07:35:10.729Z,17.62
2016-12-24T07:35:51.360Z,17.64
2016-12-24T07:36:31.985Z,17.62
2016-12-24T07:37:12.617Z,17.57
2016-12-24T07:37:53.239Z,17.71
2016-12-24T07:38:33.869Z,17.63
2016-12-24T07:39:14.493Z,17.67
2016-12-24T07:39:55.172Z,17.64
2016-12-24T07:40:35.795Z,17.64
2016-12-24T07:41:16.519Z,17.59
2016-12-24T07:41:57.154Z,17.73
2016-12-24T07:42:37.788Z,17.62
2016-12-24T07:43:18.432Z,17.62
2016-12-24T07:43:59.055Z,17.71
2016-12-24T07:44:39.682Z,17.67
2016-12-24T07:45:20.323Z,17.62
2016-12-24T07:46:01.097Z,17.69
2016-12-24T07:46:41.726Z,17.59
2016-12-24T07:47:22.428Z,17.66
2016-12-24T07:48:03.055Z,17.64
2016-12-24T07:48:43.693Z,17.66
2016-12-24T07:49:24.314Z,17.55
2016-12-24T07:50:04.946Z,17.71
2016-12-24T07:50:45.574Z,17.59
2016-12-24T07:51:26.206Z,17.59
2016-12-24T07:52:06.956Z,17.69
2016-12-24T07:52:47.591Z,17.62
2016-12-24T07:53:28.216Z,17.59
2016-12-24T07:54:08.844Z,17.69
2016-12-24T07:54:49.551Z,17.66
2016-12-24T07:55:30.205Z,17.7
2016-12-24T07:56:10.828Z,17.64
2016-12-24T07:56:51.537Z,17.69
2016-12-24T07:57:32.163Z,17.59
2016-12-24T07:58:12.794Z,17.63
2016-12-24T07:58:53.418Z,17.64
2016-12-24T07:59:34.052Z,17.66
2016-12-24T08:00:14.771Z,17.62
2016-12-24T08:00:55.404Z,17.59
2016-12-24T08:01:36.035Z,17.63
2016-12-24T08:02:16.666Z,17.64
2016-12-24T08:02:57.295Z,17.63
2016-12-24T08:03:37.931Z,17.63
2016-12-24T08:04:18.626Z,17.64
2016-12-24T08:04:59.262Z,17.59
2016-12-24T08:05:39.884Z,17.64
2016-12-24T08:06:20.525Z,17.63
2016-12-24T08:07:01.199Z,17.66
2016-12-24T08:07:41.845Z,17.62
2016-12-24T08:08:22.473Z,17.67
2016-12-24T08:09:03.108Z,17.71
2016-12-24T08:09:43.735Z,17.64
2016-12-24T08:10:24.372Z,17.59
2016-12-24T08:11:05.006Z,17.59
2016-12-24T08:11:45.644Z,17.59
2016-12-24T08:12:26.272Z,17.64
2016-12-24T08:13:06.896Z,17.54
2016-12-24T08:13:47.537Z,17.63
2016-12-24T08:14:28.177Z,17.63
2016-12-24T08:15:08.799Z,17.57
2016-12-24T08:15:49.442Z,17.66
2016-12-24T08:16:30.073Z,17.59
2016-12-24T08:17:10.740Z,17.64
2016-12-24T08:17:51.360Z,17.66
2016-12-24T08:18:31.980Z,17.67
2016-12-24T08:19:12.604Z,17.63
2016-12-24T08:19:53.246Z,17.55
2016-12-24T08:20:33.900Z,17.67
2016-12-24T08:21:14.547Z,17.55
2016-12-24T08:21:55.172Z,17.64
2016-12-24T08:22:35.795Z,17.63
2016-12-24T08:23:16.480Z,17.66
2016-12-24T08:23:57.106Z,17.63
2016-12-24T08:24:37.734Z,17.63
2016-12-24T08:25:18.363Z,17.64
2016-12-24T08:25:58.993Z,17.62
2016-12-24T08:26:39.680Z,17.64
2016-12-24T08:27:20.305Z,17.59
2016-12-24T08:28:01.018Z,17.66
2016-12-24T08:28:41.650Z,17.64
2016-12-24T08:29:22.340Z,17.59
2016-12-24T08:30:02.966Z,17.64
2016-12-24T08:30:43.658Z,17.66
2016-12-24T08:31:24.340Z,17.62
2016-12-24T08:32:04.969Z,17.69
2016-12-24T08:32:45.607Z,17.63
2016-12-24T08:33:26.292Z,17.64
2016-12-24T08:34:06.948Z,17.59
2016-12-24T08:34:47.568Z,17.57
2016-12-24T08:35:28.232Z,17.55
2016-12-24T08:36:08.899Z,17.59
2016-12-24T08:36:49.549Z,17.67
2016-12-24T08:37:30.269Z,17.63
2016-12-24T08:38:10.998Z,17.7
2016-12-24T08:38:51.624Z,17.62
2016-12-24T08:39:32.340Z,17.69
2016-12-24T08:40:12.988Z,17.69
2016-12-24T08:40:53.625Z,17.63
2016-12-24T08:41:34.259Z,17.66
2016-12-24T08:42:14.898Z,17.64
2016-12-24T08:42:55.518Z,17.64
2016-12-24T08:43:36.150Z,17.63
2016-12-24T08:44:16.897Z,17.59
2016-12-24T08:44:57.520Z,17.62